HTI weather

Hamilton Island Airport
Hamilton Island, Queensland, Australia

Public forecast

Using degrees Celsius for public forecast. Weather courtesy of forecast.io.

METAR (pilot weather report)

Retrieved 2018/02/24 23:30 UTC (23 minutes ago):

YBHM 242330Z AUTO 08002KT 9999 // SCT061 SCT069 OVC085 24/23 Q1009

TAF (pilot weather forecast)

Forecast is more than 12 hours old.

Retrieved 2018/02/21 06:00 UTC (4 days ago):

TAF YBHM 210511Z 2106/2118 11014KT 9999 -SHRA FEW025 SCT050 FM211000 11012KT 9999 -SHRA SCT025 BKN040 TEMPO 2106/2118 4000 SHRA BKN018